sensor_id;sensor_type;location;lat;lon;timestamp;P1;durP1;ratioP1;P2;durP2;ratioP2
1410;SDS011;700;51.906;8.404;2024-03-22T00:00:21;40.73;;;28.70;;
1410;SDS011;700;51.906;8.404;2024-03-22T00:05:22;42.50;;;30.80;;
1410;SDS011;700;51.906;8.404;2024-03-22T00:10:25;40.37;;;26.77;;
1410;SDS011;700;51.906;8.404;2024-03-22T00:15:28;36.70;;;25.33;;
1410;SDS011;700;51.906;8.404;2024-03-22T00:20:33;42.53;;;26.87;;
1410;SDS011;700;51.906;8.404;2024-03-22T00:25:38;38.80;;;25.30;;
1410;SDS011;700;51.906;8.404;2024-03-22T00:30:41;35.83;;;25.87;;
1410;SDS011;700;51.906;8.404;2024-03-22T00:35:44;37.33;;;25.13;;
1410;SDS011;700;51.906;8.404;2024-03-22T00:40:49;37.50;;;25.63;;
1410;SDS011;700;51.906;8.404;2024-03-22T00:45:50;39.30;;;25.53;;
1410;SDS011;700;51.906;8.404;2024-03-22T00:50:53;36.97;;;25.27;;
1410;SDS011;700;51.906;8.404;2024-03-22T00:55:58;37.87;;;25.53;;
1410;SDS011;700;51.906;8.404;2024-03-22T01:01:01;36.07;;;25.47;;
1410;SDS011;700;51.906;8.404;2024-03-22T01:06:02;35.40;;;23.17;;
1410;SDS011;700;51.906;8.404;2024-03-22T01:11:03;37.63;;;26.87;;
1410;SDS011;700;51.906;8.404;2024-03-22T01:16:04;37.20;;;25.03;;
1410;SDS011;700;51.906;8.404;2024-03-22T01:21:05;42.20;;;26.20;;
1410;SDS011;700;51.906;8.404;2024-03-22T01:26:05;36.73;;;24.73;;
1410;SDS011;700;51.906;8.404;2024-03-22T01:31:10;43.23;;;26.53;;
1410;SDS011;700;51.906;8.404;2024-03-22T01:36:13;37.70;;;24.23;;
1410;SDS011;700;51.906;8.404;2024-03-22T01:41:14;36.17;;;23.97;;
1410;SDS011;700;51.906;8.404;2024-03-22T01:46:14;37.80;;;25.50;;
1410;SDS011;700;51.906;8.404;2024-03-22T01:51:15;38.43;;;24.70;;
1410;SDS011;700;51.906;8.404;2024-03-22T01:56:16;40.57;;;25.50;;
1410;SDS011;700;51.906;8.404;2024-03-22T02:01:17;38.73;;;25.20;;
1410;SDS011;700;51.906;8.404;2024-03-22T02:06:18;43.60;;;25.43;;
1410;SDS011;700;51.906;8.404;2024-03-22T02:11:18;43.03;;;25.67;;
1410;SDS011;700;51.906;8.404;2024-03-22T02:16:20;35.63;;;22.60;;
1410;SDS011;700;51.906;8.404;2024-03-22T02:21:20;38.13;;;24.37;;
1410;SDS011;700;51.906;8.404;2024-03-22T02:26:23;40.03;;;25.00;;
1410;SDS011;700;51.906;8.404;2024-03-22T02:31:24;37.87;;;25.07;;
1410;SDS011;700;51.906;8.404;2024-03-22T02:36:26;44.10;;;25.60;;
1410;SDS011;700;51.906;8.404;2024-03-22T02:41:29;41.37;;;25.63;;
1410;SDS011;700;51.906;8.404;2024-03-22T02:46:31;39.07;;;23.30;;
1410;SDS011;700;51.906;8.404;2024-03-22T02:51:32;45.70;;;26.27;;
1410;SDS011;700;51.906;8.404;2024-03-22T02:56:33;39.00;;;24.67;;
1410;SDS011;700;51.906;8.404;2024-03-22T03:01:33;43.93;;;24.63;;
1410;SDS011;700;51.906;8.404;2024-03-22T03:06:34;46.43;;;27.60;;
1410;SDS011;700;51.906;8.404;2024-03-22T03:11:38;36.30;;;22.63;;
1410;SDS011;700;51.906;8.404;2024-03-22T03:16:39;37.70;;;22.67;;
1410;SDS011;700;51.906;8.404;2024-03-22T03:21:40;41.97;;;26.90;;
1410;SDS011;700;51.906;8.404;2024-03-22T03:26:40;42.73;;;24.07;;
1410;SDS011;700;51.906;8.404;2024-03-22T03:31:46;41.97;;;24.50;;
1410;SDS011;700;51.906;8.404;2024-03-22T03:36:46;37.47;;;22.77;;
1410;SDS011;700;51.906;8.404;2024-03-22T03:41:47;40.07;;;23.77;;
1410;SDS011;700;51.906;8.404;2024-03-22T03:46:50;39.93;;;24.33;;
1410;SDS011;700;51.906;8.404;2024-03-22T03:51:51;39.60;;;23.23;;
1410;SDS011;700;51.906;8.404;2024-03-22T03:56:52;38.77;;;22.93;;
1410;SDS011;700;51.906;8.404;2024-03-22T04:01:55;35.37;;;22.47;;
1410;SDS011;700;51.906;8.404;2024-03-22T04:06:57;36.30;;;24.03;;
1410;SDS011;700;51.906;8.404;2024-03-22T04:11:58;35.70;;;23.07;;
1410;SDS011;700;51.906;8.404;2024-03-22T04:16:59;40.80;;;24.27;;
1410;SDS011;700;51.906;8.404;2024-03-22T04:21:59;38.43;;;21.90;;
1410;SDS011;700;51.906;8.404;2024-03-22T04:27:00;33.53;;;21.23;;
1410;SDS011;700;51.906;8.404;2024-03-22T04:32:03;38.57;;;23.53;;
1410;SDS011;700;51.906;8.404;2024-03-22T04:37:06;36.93;;;23.10;;
1410;SDS011;700;51.906;8.404;2024-03-22T04:42:07;33.47;;;21.60;;
1410;SDS011;700;51.906;8.404;2024-03-22T04:47:10;33.97;;;21.17;;
1410;SDS011;700;51.906;8.404;2024-03-22T04:52:13;32.97;;;21.37;;
1410;SDS011;700;51.906;8.404;2024-03-22T04:57:15;32.53;;;20.00;;
1410;SDS011;700;51.906;8.404;2024-03-22T05:02:18;29.60;;;18.33;;
1410;SDS011;700;51.906;8.404;2024-03-22T05:07:19;38.03;;;22.20;;
1410;SDS011;700;51.906;8.404;2024-03-22T05:12:19;32.63;;;22.13;;
1410;SDS011;700;51.906;8.404;2024-03-22T05:17:22;33.70;;;19.67;;
1410;SDS011;700;51.906;8.404;2024-03-22T05:22:23;33.73;;;21.07;;
1410;SDS011;700;51.906;8.404;2024-03-22T05:27:26;33.97;;;20.97;;
1410;SDS011;700;51.906;8.404;2024-03-22T05:32:28;31.90;;;19.70;;
1410;SDS011;700;51.906;8.404;2024-03-22T05:37:29;34.30;;;19.40;;
1410;SDS011;700;51.906;8.404;2024-03-22T05:42:30;33.53;;;18.70;;
1410;SDS011;700;51.906;8.404;2024-03-22T05:47:30;29.43;;;18.00;;
1410;SDS011;700;51.906;8.404;2024-03-22T05:52:32;28.30;;;18.17;;
1410;SDS011;700;51.906;8.404;2024-03-22T05:57:33;28.10;;;18.23;;
1410;SDS011;700;51.906;8.404;2024-03-22T06:02:37;31.20;;;18.10;;
1410;SDS011;700;51.906;8.404;2024-03-22T06:07:40;30.90;;;18.50;;
1410;SDS011;700;51.906;8.404;2024-03-22T06:12:42;34.03;;;19.30;;
1410;SDS011;700;51.906;8.404;2024-03-22T06:17:47;27.90;;;18.00;;
1410;SDS011;700;51.906;8.404;2024-03-22T06:22:48;27.77;;;17.90;;
1410;SDS011;700;51.906;8.404;2024-03-22T06:27:48;26.73;;;16.17;;
1410;SDS011;700;51.906;8.404;2024-03-22T06:32:49;23.63;;;16.83;;
1410;SDS011;700;51.906;8.404;2024-03-22T06:37:50;26.00;;;16.40;;
1410;SDS011;700;51.906;8.404;2024-03-22T06:42:50;27.10;;;17.33;;
1410;SDS011;700;51.906;8.404;2024-03-22T06:47:51;27.00;;;16.60;;
1410;SDS011;700;51.906;8.404;2024-03-22T06:52:54;26.03;;;16.63;;
1410;SDS011;700;51.906;8.404;2024-03-22T06:57:55;23.60;;;16.37;;
1410;SDS011;700;51.906;8.404;2024-03-22T07:02:55;23.10;;;15.17;;
1410;SDS011;700;51.906;8.404;2024-03-22T07:07:56;28.27;;;17.33;;
1410;SDS011;700;51.906;8.404;2024-03-22T07:12:57;23.90;;;15.30;;
1410;SDS011;700;51.906;8.404;2024-03-22T07:17:58;24.10;;;16.33;;
1410;SDS011;700;51.906;8.404;2024-03-22T07:22:58;21.57;;;15.63;;
1410;SDS011;700;51.906;8.404;2024-03-22T07:27:59;20.70;;;14.90;;
1410;SDS011;700;51.906;8.404;2024-03-22T07:33:00;21.20;;;15.43;;
1410;SDS011;700;51.906;8.404;2024-03-22T07:38:03;23.23;;;15.17;;
1410;SDS011;700;51.906;8.404;2024-03-22T07:43:06;20.00;;;14.20;;
1410;SDS011;700;51.906;8.404;2024-03-22T07:48:07;21.17;;;14.57;;
1410;SDS011;700;51.906;8.404;2024-03-22T07:53:07;19.00;;;13.40;;
1410;SDS011;700;51.906;8.404;2024-03-22T07:58:13;19.37;;;13.70;;
1410;SDS011;700;51.906;8.404;2024-03-22T08:03:14;18.70;;;12.97;;
1410;SDS011;700;51.906;8.404;2024-03-22T08:08:16;19.77;;;13.20;;
1410;SDS011;700;51.906;8.404;2024-03-22T08:13:17;16.23;;;13.30;;
1410;SDS011;700;51.906;8.404;2024-03-22T08:18:20;18.60;;;13.67;;
1410;SDS011;700;51.906;8.404;2024-03-22T08:23:21;16.43;;;12.73;;
1410;SDS011;700;51.906;8.404;2024-03-22T08:28:24;17.87;;;11.70;;
1410;SDS011;700;51.906;8.404;2024-03-22T08:33:24;18.63;;;12.90;;
1410;SDS011;700;51.906;8.404;2024-03-22T08:38:25;15.13;;;11.53;;
1410;SDS011;700;51.906;8.404;2024-03-22T08:43:27;18.93;;;12.17;;
1410;SDS011;700;51.906;8.404;2024-03-22T08:48:29;18.27;;;11.77;;
1410;SDS011;700;51.906;8.404;2024-03-22T08:53:29;14.80;;;11.47;;
1410;SDS011;700;51.906;8.404;2024-03-22T08:58:30;19.57;;;12.20;;
1410;SDS011;700;51.906;8.404;2024-03-22T09:03:30;14.00;;;11.60;;
1410;SDS011;700;51.906;8.404;2024-03-22T09:08:33;15.23;;;11.50;;
1410;SDS011;700;51.906;8.404;2024-03-22T09:13:34;13.87;;;10.80;;
1410;SDS011;700;51.906;8.404;2024-03-22T09:18:35;12.17;;;10.60;;
1410;SDS011;700;51.906;8.404;2024-03-22T09:23:36;11.13;;;9.93;;
1410;SDS011;700;51.906;8.404;2024-03-22T09:28:39;14.70;;;10.60;;
1410;SDS011;700;51.906;8.404;2024-03-22T09:33:42;14.10;;;10.60;;
1410;SDS011;700;51.906;8.404;2024-03-22T09:38:45;11.60;;;9.50;;
1410;SDS011;700;51.906;8.404;2024-03-22T09:43:48;14.87;;;10.50;;
1410;SDS011;700;51.906;8.404;2024-03-22T09:48:52;14.27;;;10.33;;
1410;SDS011;700;51.906;8.404;2024-03-22T09:53:56;14.80;;;9.03;;
1410;SDS011;700;51.906;8.404;2024-03-22T09:58:57;13.07;;;10.53;;
1410;SDS011;700;51.906;8.404;2024-03-22T10:04:01;12.10;;;10.27;;
1410;SDS011;700;51.906;8.404;2024-03-22T10:09:08;14.33;;;10.67;;
1410;SDS011;700;51.906;8.404;2024-03-22T10:14:11;15.50;;;9.83;;
1410;SDS011;700;51.906;8.404;2024-03-22T10:19:12;13.83;;;11.00;;
1410;SDS011;700;51.906;8.404;2024-03-22T10:24:15;14.73;;;10.43;;
1410;SDS011;700;51.906;8.404;2024-03-22T10:29:16;12.30;;;10.63;;
1410;SDS011;700;51.906;8.404;2024-03-22T10:34:17;17.50;;;10.27;;
1410;SDS011;700;51.906;8.404;2024-03-22T10:39:18;14.07;;;11.07;;
1410;SDS011;700;51.906;8.404;2024-03-22T10:44:22;13.20;;;10.33;;
1410;SDS011;700;51.906;8.404;2024-03-22T10:49:25;14.03;;;10.37;;
1410;SDS011;700;51.906;8.404;2024-03-22T10:54:32;16.33;;;10.70;;
1410;SDS011;700;51.906;8.404;2024-03-22T10:59:40;15.90;;;10.40;;
1410;SDS011;700;51.906;8.404;2024-03-22T11:04:44;14.90;;;11.87;;
1410;SDS011;700;51.906;8.404;2024-03-22T11:09:57;15.73;;;10.60;;
1410;SDS011;700;51.906;8.404;2024-03-22T11:15:04;14.37;;;9.97;;
1410;SDS011;700;51.906;8.404;2024-03-22T11:20:05;11.97;;;9.70;;
1410;SDS011;700;51.906;8.404;2024-03-22T11:25:06;15.33;;;10.03;;
1410;SDS011;700;51.906;8.404;2024-03-22T11:30:09;18.50;;;12.60;;
1410;SDS011;700;51.906;8.404;2024-03-22T11:35:13;17.47;;;12.00;;
1410;SDS011;700;51.906;8.404;2024-03-22T11:40:13;13.37;;;10.90;;
1410;SDS011;700;51.906;8.404;2024-03-22T11:45:15;14.93;;;11.40;;
1410;SDS011;700;51.906;8.404;2024-03-22T11:50:17;16.67;;;11.40;;
1410;SDS011;700;51.906;8.404;2024-03-22T11:55:18;16.23;;;10.77;;
1410;SDS011;700;51.906;8.404;2024-03-22T12:00:21;18.33;;;12.50;;
1410;SDS011;700;51.906;8.404;2024-03-22T12:05:22;14.37;;;12.03;;
1410;SDS011;700;51.906;8.404;2024-03-22T12:10:29;15.90;;;12.87;;
1410;SDS011;700;51.906;8.404;2024-03-22T12:15:32;16.67;;;13.60;;
1410;SDS011;700;51.906;8.404;2024-03-22T12:20:35;15.93;;;13.00;;
1410;SDS011;700;51.906;8.404;2024-03-22T12:25:38;16.17;;;13.10;;
1410;SDS011;700;51.906;8.404;2024-03-22T12:30:39;17.30;;;14.27;;
1410;SDS011;700;51.906;8.404;2024-03-22T12:35:42;15.37;;;13.60;;
1410;SDS011;700;51.906;8.404;2024-03-22T12:40:43;19.87;;;15.20;;
1410;SDS011;700;51.906;8.404;2024-03-22T12:45:47;20.87;;;13.43;;
1410;SDS011;700;51.906;8.404;2024-03-22T12:50:50;16.90;;;14.03;;
1410;SDS011;700;51.906;8.404;2024-03-22T12:55:51;16.23;;;14.40;;
1410;SDS011;700;51.906;8.404;2024-03-22T13:00:51;19.93;;;15.57;;
1410;SDS011;700;51.906;8.404;2024-03-22T13:05:52;19.70;;;16.20;;
1410;SDS011;700;51.906;8.404;2024-03-22T13:10:53;19.37;;;14.73;;
1410;SDS011;700;51.906;8.404;2024-03-22T13:15:58;20.40;;;14.77;;
1410;SDS011;700;51.906;8.404;2024-03-22T13:21:02;18.27;;;15.10;;
1410;SDS011;700;51.906;8.404;2024-03-22T13:26:06;18.03;;;14.63;;
1410;SDS011;700;51.906;8.404;2024-03-22T13:31:07;22.53;;;15.97;;
1410;SDS011;700;51.906;8.404;2024-03-22T13:36:10;17.90;;;15.00;;
1410;SDS011;700;51.906;8.404;2024-03-22T13:41:11;22.27;;;17.20;;
1410;SDS011;700;51.906;8.404;2024-03-22T13:46:12;19.37;;;16.47;;
1410;SDS011;700;51.906;8.404;2024-03-22T13:51:17;23.73;;;18.70;;
1410;SDS011;700;51.906;8.404;2024-03-22T13:56:18;21.67;;;17.57;;
1410;SDS011;700;51.906;8.404;2024-03-22T14:01:23;23.20;;;18.37;;
1410;SDS011;700;51.906;8.404;2024-03-22T14:06:24;28.23;;;18.30;;
1410;SDS011;700;51.906;8.404;2024-03-22T14:11:27;25.13;;;18.57;;
1410;SDS011;700;51.906;8.404;2024-03-22T14:16:30;28.40;;;19.83;;
1410;SDS011;700;51.906;8.404;2024-03-22T14:21:31;23.97;;;17.20;;
1410;SDS011;700;51.906;8.404;2024-03-22T14:26:32;24.97;;;19.87;;
1410;SDS011;700;51.906;8.404;2024-03-22T14:31:33;26.67;;;18.70;;
1410;SDS011;700;51.906;8.404;2024-03-22T14:36:36;26.00;;;18.67;;
1410;SDS011;700;51.906;8.404;2024-03-22T14:41:37;22.47;;;16.73;;
1410;SDS011;700;51.906;8.404;2024-03-22T14:46:40;28.53;;;18.60;;
1410;SDS011;700;51.906;8.404;2024-03-22T14:51:40;24.23;;;17.67;;
1410;SDS011;700;51.906;8.404;2024-03-22T14:56:41;22.43;;;17.80;;
1410;SDS011;700;51.906;8.404;2024-03-22T15:01:42;24.33;;;17.80;;
1410;SDS011;700;51.906;8.404;2024-03-22T15:06:44;22.63;;;17.73;;
1410;SDS011;700;51.906;8.404;2024-03-22T15:11:50;27.47;;;19.80;;
1410;SDS011;700;51.906;8.404;2024-03-22T15:16:55;28.27;;;18.80;;
1410;SDS011;700;51.906;8.404;2024-03-22T15:21:58;19.30;;;15.77;;
1410;SDS011;700;51.906;8.404;2024-03-22T15:27:08;21.27;;;16.40;;
1410;SDS011;700;51.906;8.404;2024-03-22T15:32:09;20.43;;;15.57;;
1410;SDS011;700;51.906;8.404;2024-03-22T15:37:12;17.30;;;14.40;;
1410;SDS011;700;51.906;8.404;2024-03-22T15:42:15;20.20;;;15.23;;
1410;SDS011;700;51.906;8.404;2024-03-22T15:47:18;18.10;;;14.77;;
1410;SDS011;700;51.906;8.404;2024-03-22T15:52:19;19.90;;;14.87;;
1410;SDS011;700;51.906;8.404;2024-03-22T15:57:19;17.63;;;14.77;;
1410;SDS011;700;51.906;8.404;2024-03-22T16:02:23;17.43;;;14.20;;
1410;SDS011;700;51.906;8.404;2024-03-22T16:07:25;16.87;;;14.57;;
1410;SDS011;700;51.906;8.404;2024-03-22T16:12:28;17.37;;;14.03;;
1410;SDS011;700;51.906;8.404;2024-03-22T16:17:31;16.70;;;13.50;;
1410;SDS011;700;51.906;8.404;2024-03-22T16:22:37;15.83;;;12.87;;
1410;SDS011;700;51.906;8.404;2024-03-22T16:27:38;16.90;;;13.63;;
1410;SDS011;700;51.906;8.404;2024-03-22T16:32:40;19.60;;;12.97;;
1410;SDS011;700;51.906;8.404;2024-03-22T16:37:43;16.87;;;13.20;;
1410;SDS011;700;51.906;8.404;2024-03-22T16:42:44;23.47;;;17.83;;
1410;SDS011;700;51.906;8.404;2024-03-22T16:47:46;17.27;;;14.20;;
1410;SDS011;700;51.906;8.404;2024-03-22T16:52:50;16.53;;;13.70;;
1410;SDS011;700;51.906;8.404;2024-03-22T16:57:51;16.03;;;13.40;;
1410;SDS011;700;51.906;8.404;2024-03-22T17:02:53;15.60;;;13.43;;
1410;SDS011;700;51.906;8.404;2024-03-22T17:07:56;18.87;;;14.90;;
1410;SDS011;700;51.906;8.404;2024-03-22T17:12:59;21.20;;;16.20;;
1410;SDS011;700;51.906;8.404;2024-03-22T17:18:00;19.73;;;14.57;;
1410;SDS011;700;51.906;8.404;2024-03-22T17:23:01;17.83;;;13.53;;
1410;SDS011;700;51.906;8.404;2024-03-22T17:28:02;16.63;;;13.20;;
1410;SDS011;700;51.906;8.404;2024-03-22T17:33:03;20.47;;;16.00;;
1410;SDS011;700;51.906;8.404;2024-03-22T17:38:09;17.67;;;13.87;;
1410;SDS011;700;51.906;8.404;2024-03-22T17:43:10;15.50;;;13.20;;
1410;SDS011;700;51.906;8.404;2024-03-22T17:48:16;17.87;;;13.60;;
1410;SDS011;700;51.906;8.404;2024-03-22T17:53:17;16.85;;;14.52;;
1410;SDS011;700;51.906;8.404;2024-03-22T17:58:18;15.17;;;12.30;;
1410;SDS011;700;51.906;8.404;2024-03-22T18:03:19;18.00;;;13.17;;
1410;SDS011;700;51.906;8.404;2024-03-22T18:08:19;18.10;;;14.13;;
1410;SDS011;700;51.906;8.404;2024-03-22T18:13:20;16.77;;;13.40;;
1410;SDS011;700;51.906;8.404;2024-03-22T18:18:22;15.30;;;12.60;;
1410;SDS011;700;51.906;8.404;2024-03-22T18:23:25;17.10;;;13.27;;
1410;SDS011;700;51.906;8.404;2024-03-22T18:28:30;18.00;;;14.03;;
1410;SDS011;700;51.906;8.404;2024-03-22T18:33:35;18.00;;;13.70;;
1410;SDS011;700;51.906;8.404;2024-03-22T18:38:36;17.60;;;13.93;;
1410;SDS011;700;51.906;8.404;2024-03-22T18:43:44;16.90;;;11.60;;
1410;SDS011;700;51.906;8.404;2024-03-22T18:48:47;12.60;;;7.47;;
1410;SDS011;700;51.906;8.404;2024-03-22T18:53:48;5.53;;;4.20;;
1410;SDS011;700;51.906;8.404;2024-03-22T18:58:48;7.23;;;4.50;;
1410;SDS011;700;51.906;8.404;2024-03-22T19:03:51;8.63;;;3.77;;
1410;SDS011;700;51.906;8.404;2024-03-22T19:08:54;6.07;;;4.40;;
1410;SDS011;700;51.906;8.404;2024-03-22T19:13:57;7.70;;;4.13;;
1410;SDS011;700;51.906;8.404;2024-03-22T19:19:00;7.73;;;4.33;;
1410;SDS011;700;51.906;8.404;2024-03-22T19:24:05;10.00;;;4.43;;
1410;SDS011;700;51.906;8.404;2024-03-22T19:34:15;8.23;;;5.30;;
1410;SDS011;700;51.906;8.404;2024-03-22T19:39:20;9.57;;;4.90;;
1410;SDS011;700;51.906;8.404;2024-03-22T19:44:23;8.17;;;5.03;;
1410;SDS011;700;51.906;8.404;2024-03-22T19:49:24;6.57;;;5.00;;
1410;SDS011;700;51.906;8.404;2024-03-22T19:54:28;7.50;;;5.07;;
1410;SDS011;700;51.906;8.404;2024-03-22T19:59:31;8.73;;;4.60;;
1410;SDS011;700;51.906;8.404;2024-03-22T20:04:34;11.20;;;6.20;;
1410;SDS011;700;51.906;8.404;2024-03-22T20:09:37;10.33;;;5.50;;
1410;SDS011;700;51.906;8.404;2024-03-22T20:14:40;9.17;;;5.73;;
1410;SDS011;700;51.906;8.404;2024-03-22T20:19:43;12.17;;;6.00;;
1410;SDS011;700;51.906;8.404;2024-03-22T20:24:46;9.80;;;6.50;;
1410;SDS011;700;51.906;8.404;2024-03-22T20:29:47;9.60;;;7.13;;
1410;SDS011;700;51.906;8.404;2024-03-22T20:34:49;13.70;;;6.80;;
